createdAt,value
2023-11-25T00:00:55.420Z,1.80
2023-11-25T00:03:22.192Z,1.70
2023-11-25T00:05:48.771Z,1.50
2023-11-25T00:08:15.226Z,2.25
2023-11-25T00:10:41.784Z,2.20
2023-11-25T00:13:08.456Z,1.80
2023-11-25T00:15:35.034Z,1.80
2023-11-25T00:18:01.725Z,2.10
2023-11-25T00:20:28.211Z,2.00
2023-11-25T00:22:54.715Z,1.95
2023-11-25T00:25:21.281Z,2.08
2023-11-25T00:27:47.791Z,2.00
2023-11-25T00:30:14.403Z,1.63
2023-11-25T00:32:40.925Z,2.08
2023-11-25T00:35:08.920Z,2.40
2023-11-25T00:37:36.202Z,2.03
2023-11-25T00:40:03.845Z,1.63
2023-11-25T00:42:30.353Z,2.15
2023-11-25T00:44:56.814Z,2.03
2023-11-25T00:47:23.452Z,2.22
2023-11-25T00:49:49.963Z,1.95
2023-11-25T00:52:16.733Z,2.17
2023-11-25T00:54:43.187Z,1.77
2023-11-25T00:57:09.650Z,2.00
2023-11-25T00:59:36.081Z,1.85
2023-11-25T01:02:02.617Z,2.15
2023-11-25T01:04:29.172Z,2.10
2023-11-25T01:06:55.686Z,1.83
2023-11-25T01:09:22.106Z,1.80
2023-11-25T01:11:48.624Z,1.60
2023-11-25T01:14:15.268Z,2.35
2023-11-25T01:16:41.832Z,1.77
2023-11-25T01:19:08.311Z,1.73
2023-11-25T01:21:34.774Z,1.95
2023-11-25T01:24:01.219Z,2.05
2023-11-25T01:26:27.654Z,2.05
2023-11-25T01:28:54.075Z,2.08
2023-11-25T01:31:20.562Z,2.13
2023-11-25T01:33:47.047Z,1.80
2023-11-25T01:36:13.471Z,2.10
2023-11-25T01:38:40.226Z,2.13
2023-11-25T01:41:06.772Z,1.90
2023-11-25T01:43:33.380Z,2.05
2023-11-25T01:46:02.351Z,1.98
2023-11-25T01:48:29.412Z,2.55
2023-11-25T01:50:57.225Z,2.00
2023-11-25T01:53:24.312Z,1.90
2023-11-25T01:55:52.916Z,2.00
2023-11-25T01:58:20.361Z,2.20
2023-11-25T02:00:47.755Z,1.77
2023-11-25T02:03:14.700Z,2.22
2023-11-25T02:05:43.290Z,1.92
2023-11-25T02:08:10.107Z,2.10
2023-11-25T02:10:36.710Z,2.00
2023-11-25T02:13:03.957Z,2.10
2023-11-25T02:15:30.953Z,2.05
2023-11-25T02:17:57.544Z,2.15
2023-11-25T02:20:36.997Z,1.92
2023-11-25T02:23:04.994Z,1.92
2023-11-25T02:25:32.144Z,1.92
2023-11-25T02:27:58.607Z,2.25
2023-11-25T02:30:25.090Z,1.80
2023-11-25T02:32:51.941Z,1.92
2023-11-25T02:35:18.862Z,1.90
2023-11-25T02:37:45.857Z,2.30
2023-11-25T02:40:14.468Z,1.85
2023-11-25T02:42:40.933Z,1.88
2023-11-25T02:45:07.615Z,2.10
2023-11-25T02:47:34.111Z,1.70
2023-11-25T02:50:00.610Z,1.98
2023-11-25T02:52:27.666Z,1.70
2023-11-25T02:54:54.134Z,1.88
2023-11-25T02:57:20.638Z,2.17
2023-11-25T02:59:47.069Z,1.85
2023-11-25T03:02:13.618Z,1.70
2023-11-25T03:04:40.179Z,1.85
2023-11-25T03:07:06.689Z,2.08
2023-11-25T03:09:33.165Z,1.92
2023-11-25T03:11:59.579Z,2.00
2023-11-25T03:14:26.109Z,2.25
2023-11-25T03:16:56.066Z,1.73
2023-11-25T03:19:22.891Z,1.88
2023-11-25T03:21:49.561Z,1.70
2023-11-25T03:24:15.965Z,2.15
2023-11-25T03:26:42.379Z,1.80
2023-11-25T03:29:08.835Z,1.90
2023-11-25T03:31:35.386Z,1.58
2023-11-25T03:34:01.958Z,1.63
2023-11-25T03:36:28.404Z,1.60
2023-11-25T03:38:54.815Z,1.80
2023-11-25T03:41:21.283Z,1.80
2023-11-25T03:43:47.801Z,1.85
2023-11-25T03:46:14.315Z,1.95
2023-11-25T03:48:40.871Z,1.83
2023-11-25T03:51:10.836Z,1.60
2023-11-25T03:53:37.461Z,1.75
2023-11-25T03:56:03.980Z,1.60
2023-11-25T03:58:30.421Z,2.03
2023-11-25T04:00:56.867Z,1.70
2023-11-25T04:03:23.385Z,1.90
2023-11-25T04:05:49.971Z,1.40
2023-11-25T04:08:16.386Z,1.70
2023-11-25T04:10:42.884Z,1.55
2023-11-25T04:13:09.357Z,1.40
2023-11-25T04:15:35.803Z,1.60
2023-11-25T04:18:02.401Z,1.60
2023-11-25T04:20:28.920Z,1.50
2023-11-25T04:22:56.160Z,1.40
2023-11-25T04:25:22.689Z,1.15
2023-11-25T04:27:49.936Z,1.33
2023-11-25T04:30:19.367Z,1.10
2023-11-25T04:32:48.305Z,0.90
2023-11-25T04:35:15.420Z,1.20
2023-11-25T04:37:43.955Z,1.10
2023-11-25T04:40:10.964Z,1.00
2023-11-25T04:42:37.403Z,1.35
2023-11-25T04:45:04.489Z,1.05
2023-11-25T04:47:31.126Z,1.10
2023-11-25T04:49:57.648Z,1.08
2023-11-25T04:52:24.118Z,1.00
2023-11-25T04:54:51.238Z,0.93
2023-11-25T04:57:17.703Z,0.80
2023-11-25T04:59:44.145Z,1.00
2023-11-25T05:02:10.777Z,1.30
2023-11-25T05:04:37.488Z,1.13
2023-11-25T05:07:04.186Z,0.85
2023-11-25T05:09:30.629Z,1.05
2023-11-25T05:11:57.051Z,1.10
2023-11-25T05:14:23.469Z,1.10
2023-11-25T05:16:49.996Z,1.25
2023-11-25T05:19:16.499Z,1.23
2023-11-25T05:21:43.016Z,1.13
2023-11-25T05:24:09.656Z,1.50
2023-11-25T05:26:36.097Z,0.90
2023-11-25T05:29:02.544Z,1.00
2023-11-25T05:31:29.125Z,1.20
2023-11-25T05:33:55.624Z,1.75
2023-11-25T05:36:22.070Z,1.40
2023-11-25T05:38:48.530Z,1.00
2023-11-25T05:41:14.964Z,1.10
2023-11-25T05:43:41.446Z,1.35
2023-11-25T05:46:07.943Z,1.38
2023-11-25T05:48:34.416Z,1.10
2023-11-25T05:51:00.868Z,1.10
2023-11-25T05:53:27.303Z,0.98
2023-11-25T05:55:53.884Z,1.23
2023-11-25T05:58:20.427Z,1.10
2023-11-25T06:00:46.978Z,1.05
2023-11-25T06:03:13.463Z,1.30
2023-11-25T06:05:39.960Z,0.93
2023-11-25T06:08:06.437Z,1.10
2023-11-25T06:10:32.907Z,0.95
2023-11-25T06:12:59.402Z,1.05
2023-11-25T06:15:25.902Z,0.98
2023-11-25T06:17:52.432Z,1.10
2023-11-25T06:20:18.962Z,0.82
2023-11-25T06:22:45.483Z,1.10
2023-11-25T06:25:12.039Z,1.20
2023-11-25T06:27:38.515Z,1.17
2023-11-25T06:30:05.570Z,1.00
2023-11-25T06:32:32.018Z,1.10
2023-11-25T06:34:58.489Z,0.95
2023-11-25T06:37:25.015Z,0.88
2023-11-25T06:39:51.439Z,1.13
2023-11-25T06:42:17.914Z,0.90
2023-11-25T06:44:44.357Z,0.77
2023-11-25T06:47:11.059Z,1.10
2023-11-25T06:49:37.821Z,0.90
2023-11-25T06:52:04.581Z,1.02
2023-11-25T06:54:31.086Z,1.35
2023-11-25T06:56:57.665Z,0.82
2023-11-25T06:59:24.170Z,0.80
2023-11-25T07:01:55.311Z,1.10
2023-11-25T07:04:21.985Z,1.10
2023-11-25T07:06:48.443Z,2.08
2023-11-25T07:09:14.903Z,2.53
2023-11-25T07:11:41.420Z,2.67
2023-11-25T07:14:08.036Z,2.55
2023-11-25T07:16:34.603Z,3.25
2023-11-25T07:19:01.134Z,2.53
2023-11-25T07:21:27.820Z,3.05
2023-11-25T07:23:54.314Z,3.38
2023-11-25T07:26:20.824Z,3.22
2023-11-25T07:28:47.335Z,2.60
2023-11-25T07:31:13.836Z,2.55
2023-11-25T07:33:40.292Z,2.60
2023-11-25T07:36:07.242Z,2.67
2023-11-25T07:38:33.708Z,2.50
2023-11-25T07:41:00.170Z,2.60
2023-11-25T07:43:26.719Z,2.53
2023-11-25T07:45:53.214Z,2.42
2023-11-25T07:48:19.735Z,2.70
2023-11-25T07:50:49.019Z,2.03
2023-11-25T07:53:17.654Z,2.97
2023-11-25T07:55:44.140Z,2.65
2023-11-25T07:58:10.593Z,2.33
2023-11-25T08:00:37.043Z,2.20
2023-11-25T08:03:03.746Z,3.28
2023-11-25T08:05:30.348Z,2.28
2023-11-25T08:07:57.005Z,2.35
2023-11-25T08:10:24.918Z,2.60
2023-11-25T08:12:51.446Z,2.35
2023-11-25T08:15:18.624Z,2.63
2023-11-25T08:17:45.237Z,2.65
2023-11-25T08:20:12.042Z,1.95
2023-11-25T08:22:39.248Z,2.35
2023-11-25T08:25:07.433Z,2.08
2023-11-25T08:27:34.521Z,2.10
2023-11-25T08:30:01.106Z,2.15
2023-11-25T08:32:27.761Z,2.00
2023-11-25T08:34:54.412Z,2.03
2023-11-25T08:37:20.878Z,2.22
2023-11-25T08:39:47.300Z,2.25
2023-11-25T08:42:13.760Z,2.28
2023-11-25T08:44:40.179Z,1.88
2023-11-25T08:47:06.685Z,2.00
2023-11-25T08:49:33.177Z,2.10
2023-11-25T08:51:59.650Z,2.30
2023-11-25T08:54:26.109Z,2.35
2023-11-25T08:56:52.686Z,2.45
2023-11-25T08:59:19.239Z,2.00
2023-11-25T09:01:46.937Z,2.85
2023-11-25T09:04:14.012Z,2.47
2023-11-25T09:06:40.806Z,2.10
2023-11-25T09:09:08.013Z,2.55
2023-11-25T09:11:35.088Z,2.22
2023-11-25T09:14:01.578Z,2.20
2023-11-25T09:16:28.122Z,2.70
2023-11-25T09:18:58.271Z,2.10
2023-11-25T09:21:25.460Z,2.60
2023-11-25T09:23:51.892Z,2.72
2023-11-25T09:26:18.388Z,2.50
2023-11-25T09:28:44.843Z,2.30
2023-11-25T09:31:11.285Z,2.35
2023-11-25T09:33:37.811Z,2.55
2023-11-25T09:36:04.440Z,2.40
2023-11-25T09:38:30.927Z,2.15
2023-11-25T09:40:57.433Z,2.00
2023-11-25T09:43:24.024Z,2.15
2023-11-25T09:45:51.661Z,2.15
2023-11-25T09:48:18.138Z,1.83
2023-11-25T09:50:44.646Z,2.60
2023-11-25T09:53:16.179Z,2.30
2023-11-25T09:55:56.448Z,2.10
2023-11-25T09:58:23.008Z,2.08
2023-11-25T10:00:49.707Z,2.08
2023-11-25T10:03:19.168Z,2.03
2023-11-25T10:05:45.675Z,2.10
2023-11-25T10:08:12.104Z,1.92
2023-11-25T10:10:38.616Z,2.00
2023-11-25T10:13:14.277Z,2.33
2023-11-25T10:15:47.257Z,2.35
2023-11-25T10:18:13.697Z,2.35
2023-11-25T10:20:44.115Z,1.90
2023-11-25T10:23:10.586Z,1.98
2023-11-25T10:25:37.453Z,1.98
2023-11-25T10:28:04.545Z,2.40
2023-11-25T10:30:31.015Z,2.50
2023-11-25T10:32:57.588Z,2.05
2023-11-25T10:35:24.118Z,2.20
2023-11-25T10:37:50.613Z,2.50
2023-11-25T10:40:17.221Z,2.40
2023-11-25T10:42:44.340Z,2.25
2023-11-25T10:45:18.530Z,2.47
2023-11-25T10:47:45.288Z,2.60
2023-11-25T10:50:12.955Z,1.90
2023-11-25T10:52:42.638Z,1.90
2023-11-25T10:55:10.043Z,1.95
2023-11-25T10:57:37.464Z,2.53
2023-11-25T11:00:04.464Z,2.55
2023-11-25T11:02:40.019Z,2.08
2023-11-25T11:05:10.157Z,1.77
2023-11-25T11:08:01.686Z,2.47
2023-11-25T11:10:36.635Z,1.95
2023-11-25T11:13:09.478Z,2.20
2023-11-25T11:15:36.302Z,2.05
2023-11-25T11:18:12.858Z,2.42
2023-11-25T11:20:45.288Z,1.98
2023-11-25T11:23:12.060Z,2.08
2023-11-25T11:25:57.285Z,2.05
2023-11-25T11:28:31.684Z,2.17
2023-11-25T11:31:07.314Z,2.15
2023-11-25T11:33:34.253Z,2.22
2023-11-25T11:36:05.206Z,2.15
2023-11-25T11:38:31.642Z,2.25
2023-11-25T11:41:24.479Z,2.15
2023-11-25T11:44:04.709Z,2.17
2023-11-25T11:46:32.454Z,2.35
2023-11-25T11:49:00.628Z,2.13
2023-11-25T11:51:27.114Z,2.30
2023-11-25T11:54:21.301Z,2.50
2023-11-25T11:57:08.860Z,2.60
2023-11-25T12:00:00.982Z,2.78
2023-11-25T12:02:36.720Z,2.40
2023-11-25T12:05:03.511Z,2.90
2023-11-25T12:07:30.462Z,2.42
2023-11-25T12:09:57.555Z,2.60
2023-11-25T12:12:24.311Z,2.70
2023-11-25T12:14:53.511Z,2.50
2023-11-25T12:17:21.963Z,2.72
2023-11-25T12:19:48.643Z,2.53
2023-11-25T12:22:15.691Z,2.63
2023-11-25T12:24:42.780Z,2.63
2023-11-25T12:27:12.398Z,2.63
2023-11-25T12:29:38.963Z,2.90
2023-11-25T12:32:05.659Z,2.65
2023-11-25T12:34:32.528Z,2.67
2023-11-25T12:37:00.242Z,2.83
2023-11-25T12:39:27.813Z,2.92
2023-11-25T12:41:54.442Z,2.85
2023-11-25T12:44:20.882Z,2.85
2023-11-25T12:47:04.490Z,2.95
2023-11-25T12:49:31.123Z,2.63
2023-11-25T12:51:57.650Z,3.30
2023-11-25T12:54:24.601Z,2.70
2023-11-25T12:56:56.051Z,3.03
2023-11-25T12:59:24.098Z,2.30
2023-11-25T13:01:51.286Z,2.55
2023-11-25T13:04:17.895Z,2.88
2023-11-25T13:06:50.669Z,2.58
2023-11-25T13:09:17.214Z,2.75
2023-11-25T13:11:43.660Z,2.42
2023-11-25T13:14:10.146Z,2.42
2023-11-25T13:16:36.693Z,2.80
2023-11-25T13:19:03.204Z,2.78
2023-11-25T13:21:29.646Z,2.40
2023-11-25T13:23:56.092Z,2.85
2023-11-25T13:26:22.510Z,2.30
2023-11-25T13:28:48.984Z,2.65
2023-11-25T13:31:15.459Z,2.28
2023-11-25T13:33:41.889Z,2.20
2023-11-25T13:36:08.431Z,2.53
2023-11-25T13:38:34.930Z,2.28
2023-11-25T13:41:01.426Z,2.70
2023-11-25T13:43:27.966Z,2.35
2023-11-25T13:45:54.461Z,2.28
2023-11-25T13:48:20.900Z,2.58
2023-11-25T13:50:47.373Z,2.33
2023-11-25T13:53:13.895Z,2.10
2023-11-25T13:55:40.407Z,2.30
2023-11-25T13:58:09.050Z,2.00
2023-11-25T14:00:35.503Z,2.20
2023-11-25T14:03:02.075Z,2.22
2023-11-25T14:05:28.609Z,2.15
2023-11-25T14:07:55.071Z,2.60
2023-11-25T14:10:21.571Z,2.45
2023-11-25T14:12:48.013Z,2.15
2023-11-25T14:15:14.492Z,2.10
2023-11-25T14:17:41.111Z,2.40
2023-11-25T14:20:11.596Z,2.10
2023-11-25T14:22:39.218Z,2.20
2023-11-25T14:25:06.204Z,2.35
2023-11-25T14:27:35.188Z,2.30
2023-11-25T14:30:02.239Z,2.53
2023-11-25T14:32:28.734Z,2.58
2023-11-25T14:34:55.240Z,2.13
2023-11-25T14:37:21.703Z,2.17
2023-11-25T14:39:55.030Z,2.70
2023-11-25T14:42:27.117Z,2.30
2023-11-25T14:44:54.045Z,2.13
2023-11-25T14:47:20.603Z,2.40
2023-11-25T14:49:47.127Z,1.83
2023-11-25T14:52:13.586Z,2.15
2023-11-25T14:54:40.031Z,2.28
2023-11-25T14:57:06.465Z,1.92
2023-11-25T14:59:33.567Z,2.55
2023-11-25T15:02:00.095Z,2.92
2023-11-25T15:04:26.587Z,2.42
2023-11-25T15:06:53.067Z,2.03
2023-11-25T15:09:19.537Z,2.38
2023-11-25T15:11:46.042Z,1.90
2023-11-25T15:14:12.573Z,2.38
2023-11-25T15:16:39.646Z,2.28
2023-11-25T15:19:06.124Z,2.10
2023-11-25T15:21:32.611Z,2.00
2023-11-25T15:23:59.077Z,1.35
2023-11-25T15:26:25.775Z,1.58
2023-11-25T15:28:52.954Z,1.90
2023-11-25T15:31:19.603Z,1.83
2023-11-25T15:33:46.058Z,1.60
2023-11-25T15:36:14.019Z,1.48
2023-11-25T15:38:41.466Z,1.88
2023-11-25T15:41:09.682Z,1.42
2023-11-25T15:43:36.406Z,1.48
2023-11-25T15:46:03.130Z,1.40
2023-11-25T15:48:29.567Z,1.42
2023-11-25T15:50:56.073Z,1.85
2023-11-25T15:53:22.518Z,1.63
2023-11-25T15:55:49.139Z,1.52
2023-11-25T15:58:15.687Z,1.80
2023-11-25T16:00:43.902Z,1.60
2023-11-25T16:03:10.569Z,1.90
2023-11-25T16:05:37.284Z,1.83
2023-11-25T16:08:03.980Z,1.52
2023-11-25T16:10:31.228Z,1.60
2023-11-25T16:12:58.846Z,2.47
2023-11-25T16:15:25.272Z,1.70
2023-11-25T16:17:51.777Z,2.03
2023-11-25T16:20:18.410Z,1.75
2023-11-25T16:22:44.898Z,2.03
2023-11-25T16:25:11.587Z,1.58
2023-11-25T16:27:38.051Z,1.77
2023-11-25T16:30:04.974Z,1.58
2023-11-25T16:32:31.549Z,2.05
2023-11-25T16:34:58.189Z,1.70
2023-11-25T16:37:24.697Z,2.33
2023-11-25T16:39:51.334Z,1.63
2023-11-25T16:42:17.820Z,2.17
2023-11-25T16:44:44.327Z,1.70
2023-11-25T16:47:10.992Z,1.58
2023-11-25T16:49:41.837Z,1.73
2023-11-25T16:52:09.230Z,1.70
2023-11-25T16:54:35.714Z,1.85
2023-11-25T16:57:02.244Z,1.55
2023-11-25T16:59:28.673Z,1.83
2023-11-25T17:01:55.237Z,1.85
2023-11-25T17:04:21.832Z,1.75
2023-11-25T17:06:48.327Z,1.83
2023-11-25T17:09:14.794Z,1.63
2023-11-25T17:11:41.258Z,1.45
2023-11-25T17:14:07.702Z,1.50
2023-11-25T17:16:34.293Z,1.48
2023-11-25T17:19:00.840Z,1.55
2023-11-25T17:21:27.315Z,1.70
2023-11-25T17:23:53.788Z,1.60
2023-11-25T17:26:20.316Z,1.73
2023-11-25T17:28:47.023Z,1.55
2023-11-25T17:31:13.480Z,1.70
2023-11-25T17:33:39.953Z,1.55
2023-11-25T17:36:06.724Z,1.90
2023-11-25T17:38:33.245Z,1.90
2023-11-25T17:40:59.713Z,1.65
2023-11-25T17:43:26.259Z,1.70
2023-11-25T17:45:52.677Z,1.65
2023-11-25T17:48:19.218Z,1.60
2023-11-25T17:50:45.812Z,1.92
2023-11-25T17:53:14.683Z,2.10
2023-11-25T17:55:41.778Z,1.77
2023-11-25T17:58:08.288Z,1.63
2023-11-25T18:00:34.758Z,1.67
2023-11-25T18:03:01.361Z,1.83
2023-11-25T18:05:27.871Z,1.67
2023-11-25T18:07:54.364Z,2.35
2023-11-25T18:10:20.895Z,1.77
2023-11-25T18:12:47.316Z,1.85
2023-11-25T18:15:13.855Z,1.70
2023-11-25T18:17:40.450Z,1.73
2023-11-25T18:20:07.733Z,2.20
2023-11-25T18:22:34.263Z,2.15
2023-11-25T18:25:00.753Z,1.98
2023-11-25T18:27:27.174Z,1.85
2023-11-25T18:29:53.649Z,1.65
2023-11-25T18:32:20.154Z,2.10
2023-11-25T18:34:46.697Z,1.55
2023-11-25T18:37:13.202Z,1.92
2023-11-25T18:39:39.691Z,1.63
2023-11-25T18:42:06.298Z,1.90
2023-11-25T18:44:32.738Z,1.70
2023-11-25T18:46:59.378Z,2.05
2023-11-25T18:49:25.874Z,1.83
2023-11-25T18:51:52.318Z,1.58
2023-11-25T18:54:18.777Z,1.75
2023-11-25T18:56:45.214Z,1.90
2023-11-25T18:59:11.749Z,1.50
2023-11-25T19:01:38.302Z,1.67
2023-11-25T19:04:05.006Z,1.60
2023-11-25T19:06:31.839Z,1.83
2023-11-25T19:08:58.289Z,1.90
2023-11-25T19:11:24.720Z,1.90
2023-11-25T19:13:51.225Z,2.40
2023-11-25T19:16:18.051Z,2.20
2023-11-25T19:18:45.221Z,2.30
2023-11-25T19:21:12.490Z,2.20
2023-11-25T19:23:39.072Z,1.80
2023-11-25T19:26:05.858Z,1.90
2023-11-25T19:28:32.407Z,2.28
2023-11-25T19:30:58.870Z,2.03
2023-11-25T19:33:25.401Z,2.10
2023-11-25T19:35:51.977Z,2.38
2023-11-25T19:38:18.469Z,2.10
2023-11-25T19:40:44.957Z,2.00
2023-11-25T19:43:11.405Z,2.30
2023-11-25T19:45:37.843Z,2.47
2023-11-25T19:48:04.643Z,2.10
2023-11-25T19:50:31.146Z,1.70
2023-11-25T19:52:57.619Z,1.67
2023-11-25T19:55:24.057Z,2.00
2023-11-25T19:57:50.510Z,2.67
2023-11-25T20:00:17.394Z,2.28
2023-11-25T20:02:43.911Z,2.20
2023-11-25T20:05:10.521Z,2.30
2023-11-25T20:07:37.039Z,2.53
2023-11-25T20:10:03.724Z,1.75
2023-11-25T20:12:30.202Z,2.05
2023-11-25T20:14:56.663Z,1.83
2023-11-25T20:17:23.657Z,2.08
2023-11-25T20:19:50.201Z,2.30
2023-11-25T20:22:17.251Z,2.00
2023-11-25T20:24:43.926Z,2.40
2023-11-25T20:27:10.382Z,1.88
2023-11-25T20:29:36.854Z,2.15
2023-11-25T20:32:03.509Z,2.25
2023-11-25T20:34:29.914Z,2.22
2023-11-25T20:36:56.427Z,2.33
2023-11-25T20:39:22.902Z,2.10
2023-11-25T20:41:49.333Z,2.17
2023-11-25T20:44:15.897Z,2.00
2023-11-25T20:46:42.387Z,2.08
2023-11-25T20:49:08.886Z,2.30
2023-11-25T20:51:35.344Z,2.05
2023-11-25T20:54:02.938Z,2.25
2023-11-25T20:56:29.398Z,2.20
2023-11-25T20:58:55.878Z,2.45
2023-11-25T21:01:22.537Z,2.00
2023-11-25T21:03:49.179Z,2.47
2023-11-25T21:06:15.718Z,2.65
2023-11-25T21:08:42.193Z,2.67
2023-11-25T21:11:08.612Z,3.70
2023-11-25T21:13:35.105Z,4.97
2023-11-25T21:16:01.761Z,7.28
2023-11-25T21:18:28.292Z,9.25
2023-11-25T21:20:54.766Z,9.95
2023-11-25T21:23:21.231Z,11.00
2023-11-25T21:25:47.738Z,10.45
2023-11-25T21:28:14.241Z,11.63
2023-11-25T21:30:40.758Z,12.40
2023-11-25T21:33:07.239Z,12.38
2023-11-25T21:35:33.791Z,13.05
2023-11-25T21:38:00.320Z,12.13
2023-11-25T21:40:26.812Z,12.60
2023-11-25T21:42:53.289Z,13.02
2023-11-25T21:45:19.861Z,12.80
2023-11-25T21:47:46.390Z,12.18
2023-11-25T21:50:12.912Z,12.25
2023-11-25T21:52:40.042Z,13.02
2023-11-25T21:55:07.112Z,12.15
2023-11-25T21:57:33.601Z,10.85
2023-11-25T22:00:00.057Z,10.68
2023-11-25T22:02:26.786Z,11.38
2023-11-25T22:04:53.468Z,11.82
2023-11-25T22:07:19.928Z,9.88
2023-11-25T22:09:46.387Z,10.20
2023-11-25T22:12:12.800Z,10.05
2023-11-25T22:14:39.303Z,9.48
2023-11-25T22:17:05.814Z,9.23
2023-11-25T22:19:32.415Z,9.60
2023-11-25T22:21:58.862Z,8.25
2023-11-25T22:24:25.277Z,8.70
2023-11-25T22:26:51.809Z,8.82
2023-11-25T22:29:18.295Z,7.15
2023-11-25T22:31:44.907Z,7.38
2023-11-25T22:34:11.417Z,7.65
2023-11-25T22:36:37.892Z,6.97
2023-11-25T22:39:04.453Z,6.75
2023-11-25T22:41:31.020Z,7.07
2023-11-25T22:43:57.939Z,6.63
2023-11-25T22:46:24.748Z,6.00
2023-11-25T22:48:52.031Z,6.13
2023-11-25T22:51:19.544Z,5.80
2023-11-25T22:53:46.134Z,5.95
2023-11-25T22:56:12.814Z,5.80
2023-11-25T22:58:39.276Z,5.63
2023-11-25T23:01:05.869Z,4.40
2023-11-25T23:03:32.826Z,4.47
2023-11-25T23:05:59.342Z,4.18
2023-11-25T23:08:25.770Z,3.55
2023-11-25T23:10:52.993Z,4.00
2023-11-25T23:13:20.125Z,3.92
2023-11-25T23:15:46.581Z,4.10
2023-11-25T23:18:13.061Z,3.55
2023-11-25T23:20:39.539Z,3.58
2023-11-25T23:23:06.113Z,2.97
2023-11-25T23:25:32.564Z,3.28
2023-11-25T23:27:59.009Z,2.80
2023-11-25T23:30:25.485Z,3.10
2023-11-25T23:32:52.036Z,2.83
2023-11-25T23:35:18.659Z,3.17
2023-11-25T23:37:45.138Z,2.78
2023-11-25T23:40:11.706Z,3.20
2023-11-25T23:42:38.930Z,3.25
2023-11-25T23:45:08.801Z,2.58
2023-11-25T23:47:35.287Z,2.38
2023-11-25T23:50:01.786Z,2.30
2023-11-25T23:52:28.280Z,2.65
2023-11-25T23:54:54.746Z,2.38
2023-11-25T23:57:21.263Z,2.30
2023-11-25T23:59:47.729Z,2.38
